Time;durP1;ratioP1;P1;durP2;ratioP2;P2;SDS_P1;SDS_P2;PMS_P1;PMS_P2;Temp;Humidity;BMP_temperature;BMP_pressure;BME280_temperature;BME280_humidity;BME280_pressure;Samples;Min_cycle;Max_cycle;Signal;HPM_P1;HPM_P2
2021/05/16 00:02:18;;;;;;;9.65;4.88;;;11.20;99.90;;;;;;4998910;28;20045;-69
2021/05/16 00:04:45;;;;;;;8.60;4.72;;;11.30;99.90;;;;;;5004347;28;20057;-69
2021/05/16 00:07:12;;;;;;;8.05;4.75;;;11.30;99.90;;;;;;5019046;28;20057;-69
2021/05/16 00:09:40;;;;;;;10.30;5.50;;;11.30;99.90;;;;;;5000711;28;20046;-69
2021/05/16 00:12:09;;;;;;;9.77;5.18;;;11.40;99.90;;;;;;5002113;28;20359;-69
2021/05/16 00:14:38;;;;;;;9.38;4.57;;;11.40;99.90;;;;;;5022364;28;20156;-68
2021/05/16 00:17:05;;;;;;;11.63;5.55;;;11.40;99.90;;;;;;5002725;28;20478;-69
2021/05/16 00:19:32;;;;;;;12.40;5.97;;;11.40;99.90;;;;;;4993127;28;20454;-69
2021/05/16 00:22:00;;;;;;;8.93;4.97;;;11.40;99.90;;;;;;5004652;28;20046;-69
2021/05/16 00:24:28;;;;;;;14.80;6.68;;;11.40;99.90;;;;;;5000554;28;20042;-69
2021/05/16 00:26:54;;;;;;;9.80;5.55;;;11.40;99.90;;;;;;4998894;28;20046;-69
2021/05/16 00:29:21;;;;;;;9.98;5.80;;;11.40;99.90;;;;;;5015158;28;20042;-69
2021/05/16 00:31:48;;;;;;;10.88;4.97;;;11.40;99.90;;;;;;4998616;28;20449;-69
2021/05/16 00:34:15;;;;;;;12.63;6.00;;;11.40;99.90;;;;;;5002246;28;20053;-69
2021/05/16 00:36:43;;;;;;;7.77;4.73;;;11.40;99.90;;;;;;5003846;28;20060;-68
2021/05/16 00:39:10;;;;;;;10.32;5.90;;;11.40;99.90;;;;;;5033984;28;20092;-69
2021/05/16 00:41:37;;;;;;;13.57;6.20;;;11.30;99.90;;;;;;5014410;28;20065;-70
2021/05/16 00:44:04;;;;;;;10.77;5.80;;;11.30;99.90;;;;;;5002602;28;20445;-69
2021/05/16 00:46:32;;;;;;;10.43;5.57;;;11.30;99.90;;;;;;5009930;28;20116;-69
2021/05/16 00:48:58;;;;;;;11.93;5.75;;;11.30;99.90;;;;;;4997410;28;20050;-69
2021/05/16 00:51:25;;;;;;;12.02;5.18;;;11.30;99.90;;;;;;5001895;28;20078;-69
2021/05/16 00:53:52;;;;;;;10.65;5.15;;;11.30;99.90;;;;;;5000616;28;20173;-69
2021/05/16 00:56:20;;;;;;;13.07;5.82;;;11.30;99.90;;;;;;5012071;28;20109;-69
2021/05/16 00:58:50;;;;;;;14.40;6.05;;;11.40;99.90;;;;;;5014165;28;20053;-69
2021/05/16 01:01:19;;;;;;;12.13;5.82;;;11.40;99.90;;;;;;4999645;28;20060;-69
2021/05/16 01:03:46;;;;;;;8.77;4.55;;;11.40;99.90;;;;;;5008191;28;20062;-68
2021/05/16 01:06:13;;;;;;;13.23;5.70;;;11.40;99.90;;;;;;4999687;28;20077;-69
2021/05/16 01:08:40;;;;;;;10.88;5.10;;;11.30;99.90;;;;;;5006492;28;20200;-69
2021/05/16 01:11:07;;;;;;;10.75;5.38;;;11.30;99.90;;;;;;5008174;28;20054;-69
2021/05/16 01:13:36;;;;;;;10.07;4.65;;;11.30;99.90;;;;;;4999612;28;20054;-69
2021/05/16 01:16:03;;;;;;;14.80;5.22;;;11.30;99.90;;;;;;4999936;28;20470;-69
2021/05/16 01:18:30;;;;;;;18.50;6.03;;;11.40;99.90;;;;;;5000745;28;20050;-69
2021/05/16 01:20:57;;;;;;;17.92;7.75;;;11.40;99.90;;;;;;5006480;28;20658;-69
2021/05/16 01:23:30;;;;;;;15.85;6.68;;;11.40;99.90;;;;;;5006737;28;20050;-69
2021/05/16 01:25:58;;;;;;;21.60;7.88;;;11.40;99.90;;;;;;5006441;28;20053;-68
2021/05/16 01:28:25;;;;;;;15.02;6.07;;;11.30;99.90;;;;;;5009107;28;20127;-68
2021/05/16 01:30:52;;;;;;;19.70;8.00;;;11.30;99.90;;;;;;5006930;28;20422;-68
2021/05/16 01:33:20;;;;;;;13.07;5.13;;;11.30;99.90;;;;;;5008408;28;20525;-68
2021/05/16 01:35:47;;;;;;;15.10;5.85;;;11.20;99.90;;;;;;5004722;28;20720;-68
2021/05/16 01:38:15;;;;;;;15.55;6.40;;;11.20;99.90;;;;;;5026037;28;20057;-68
2021/05/16 01:40:42;;;;;;;19.90;6.55;;;11.10;99.90;;;;;;5005851;28;20104;-68
2021/05/16 01:43:12;;;;;;;19.10;6.40;;;11.10;99.90;;;;;;5006103;28;20144;-68
2021/05/16 01:45:40;;;;;;;17.33;5.57;;;11.00;99.90;;;;;;5007425;28;20365;-68
2021/05/16 01:48:07;;;;;;;15.57;6.55;;;10.90;99.90;;;;;;5008538;28;20050;-68
2021/05/16 01:50:37;;;;;;;16.48;5.28;;;10.90;99.90;;;;;;5006851;28;20088;-68
2021/05/16 01:53:06;;;;;;;19.95;5.63;;;10.90;99.90;;;;;;5009048;28;20042;-68
2021/05/16 01:55:34;;;;;;;16.73;6.50;;;10.90;99.90;;;;;;5013656;28;20046;-68
2021/05/16 01:58:03;;;;;;;17.83;5.68;;;10.90;99.90;;;;;;4999600;28;20050;-68
2021/05/16 02:00:37;;;;;;;22.55;7.72;;;10.90;99.90;;;;;;5008401;28;20053;-68
2021/05/16 02:03:04;;;;;;;21.25;6.10;;;10.90;99.90;;;;;;5004170;28;20383;-68
2021/05/16 02:05:32;;;;;;;12.63;5.63;;;10.90;99.90;;;;;;5001149;28;20104;-68
2021/05/16 02:08:01;;;;;;;26.60;7.45;;;10.80;99.90;;;;;;5003201;28;20054;-68
2021/05/16 02:10:28;;;;;;;20.58;6.20;;;10.80;99.90;;;;;;5005089;28;20057;-68
2021/05/16 02:12:55;;;;;;;20.70;6.57;;;10.80;99.90;;;;;;5004000;28;20607;-68
2021/05/16 02:15:22;;;;;;;21.27;5.78;;;10.80;99.90;;;;;;5006202;28;20045;-68
2021/05/16 02:17:54;;;;;;;16.80;5.32;;;10.80;99.90;;;;;;5007127;28;20053;-68
2021/05/16 02:20:21;;;;;;;12.45;5.00;;;10.80;99.90;;;;;;4999647;28;20045;-68
2021/05/16 02:22:48;;;;;;;18.58;5.30;;;10.80;99.90;;;;;;4998756;28;20555;-68
2021/05/16 02:25:15;;;;;;;17.52;5.32;;;10.80;99.90;;;;;;4994125;28;20047;-68
2021/05/16 02:27:43;;;;;;;16.85;5.25;;;10.80;99.90;;;;;;4997702;28;20046;-68
2021/05/16 02:30:11;;;;;;;14.85;4.82;;;10.80;99.90;;;;;;5005340;28;20058;-68
2021/05/16 02:32:39;;;;;;;22.23;6.47;;;10.80;99.90;;;;;;5008003;28;20512;-68
2021/05/16 02:35:10;;;;;;;16.77;6.15;;;10.80;99.90;;;;;;5001484;28;20494;-68
2021/05/16 02:37:38;;;;;;;18.60;6.82;;;10.80;99.90;;;;;;5001825;28;20050;-68
2021/05/16 02:40:07;;;;;;;19.42;7.03;;;10.80;99.90;;;;;;5004112;28;20042;-68
2021/05/16 02:42:34;;;;;;;16.75;6.47;;;10.80;99.90;;;;;;5006696;28;20405;-68
2021/05/16 02:45:02;;;;;;;20.90;7.18;;;10.80;99.90;;;;;;5003833;28;20046;-68
2021/05/16 02:47:29;;;;;;;23.23;7.00;;;10.80;99.90;;;;;;5007738;28;20053;-68
2021/05/16 02:49:56;;;;;;;23.77;6.78;;;10.80;99.90;;;;;;5020256;28;20358;-68
2021/05/16 02:52:23;;;;;;;21.30;6.38;;;10.70;99.90;;;;;;5001049;28;20043;-68
2021/05/16 02:54:50;;;;;;;25.50;8.10;;;10.70;99.90;;;;;;5002382;28;20054;-68
2021/05/16 02:57:17;;;;;;;15.63;5.68;;;10.70;99.90;;;;;;5001596;28;20042;-68
2021/05/16 02:59:44;;;;;;;22.52;6.53;;;10.70;99.90;;;;;;5005559;28;20042;-68
2021/05/16 03:02:11;;;;;;;24.95;6.35;;;10.70;99.90;;;;;;5003829;28;20468;-68
2021/05/16 03:04:38;;;;;;;21.00;5.20;;;10.70;99.90;;;;;;4997071;28;20490;-68
2021/05/16 03:07:05;;;;;;;22.48;6.28;;;10.70;99.90;;;;;;5006963;28;20057;-68
2021/05/16 03:09:34;;;;;;;20.75;6.63;;;10.70;99.90;;;;;;5002360;28;20073;-68
2021/05/16 03:12:05;;;;;;;18.30;6.53;;;10.70;99.90;;;;;;5002100;28;20621;-68
2021/05/16 03:14:38;;;;;;;23.23;6.07;;;10.60;99.90;;;;;;5005170;28;20058;-68
2021/05/16 03:17:05;;;;;;;21.52;6.20;;;10.70;99.90;;;;;;5000324;28;20073;-68
2021/05/16 03:19:33;;;;;;;25.10;6.32;;;10.70;99.90;;;;;;5024314;28;20046;-68
2021/05/16 03:22:01;;;;;;;19.67;6.22;;;10.70;99.90;;;;;;5002075;28;20402;-68
2021/05/16 03:24:29;;;;;;;21.42;7.38;;;10.70;99.90;;;;;;5031812;28;20073;-68
2021/05/16 03:26:56;;;;;;;20.75;6.13;;;10.70;99.90;;;;;;5000890;28;20050;-68
2021/05/16 03:29:23;;;;;;;21.20;7.03;;;10.60;99.90;;;;;;5009205;28;20049;-68
2021/05/16 03:31:50;;;;;;;24.40;7.05;;;10.60;99.90;;;;;;5003265;28;20050;-68
2021/05/16 03:34:17;;;;;;;21.00;6.28;;;10.60;99.90;;;;;;5007054;28;20046;-68
2021/05/16 03:36:44;;;;;;;23.30;6.25;;;10.60;99.90;;;;;;5001508;28;20137;-68
2021/05/16 03:39:11;;;;;;;26.30;6.53;;;10.60;99.90;;;;;;5008178;28;20473;-68
2021/05/16 03:41:38;;;;;;;20.27;6.82;;;10.60;99.90;;;;;;5005269;28;20060;-68
2021/05/16 03:44:06;;;;;;;14.85;5.57;;;10.60;99.90;;;;;;5007050;28;20046;-68
2021/05/16 03:46:33;;;;;;;21.45;6.00;;;10.60;99.90;;;;;;5001254;28;20282;-68
2021/05/16 03:49:00;;;;;;;24.00;6.53;;;10.60;99.90;;;;;;5002769;28;20121;-69
2021/05/16 03:51:28;;;;;;;21.27;5.88;;;10.60;99.90;;;;;;4998784;28;20133;-69
2021/05/16 03:53:55;;;;;;;23.77;6.45;;;10.60;99.90;;;;;;4998224;28;20068;-68
2021/05/16 03:56:22;;;;;;;22.42;5.85;;;10.60;99.90;;;;;;5006613;28;20099;-69
2021/05/16 03:58:49;;;;;;;17.50;4.95;;;10.60;99.90;;;;;;4993945;28;20049;-68
2021/05/16 04:01:16;;;;;;;23.23;6.35;;;10.60;99.90;;;;;;4991751;28;20053;-68
2021/05/16 04:03:43;;;;;;;17.05;5.70;;;10.60;99.90;;;;;;4997937;28;20456;-68
2021/05/16 04:06:10;;;;;;;19.23;5.57;;;10.60;99.90;;;;;;4993177;28;20412;-69
2021/05/16 04:08:37;;;;;;;22.65;6.20;;;10.60;99.90;;;;;;4998881;28;20061;-69
2021/05/16 04:11:04;;;;;;;17.38;6.75;;;10.60;99.90;;;;;;4988270;28;20110;-69
2021/05/16 04:13:31;;;;;;;19.83;6.28;;;10.70;99.90;;;;;;4997384;28;20089;-68
2021/05/16 04:15:58;;;;;;;17.23;6.28;;;10.70;99.90;;;;;;4993755;28;20054;-68
2021/05/16 04:18:25;;;;;;;22.70;6.75;;;10.70;99.90;;;;;;5007761;28;20047;-68
2021/05/16 04:20:52;;;;;;;19.40;6.40;;;10.70;99.90;;;;;;4992897;28;20077;-69
2021/05/16 04:23:19;;;;;;;20.20;6.32;;;10.70;99.90;;;;;;4996086;28;20500;-69
2021/05/16 04:25:46;;;;;;;17.90;6.93;;;10.70;99.90;;;;;;4991885;28;20065;-69
2021/05/16 04:28:13;;;;;;;19.13;6.32;;;10.80;99.90;;;;;;4997370;28;20411;-68
2021/05/16 04:30:40;;;;;;;19.15;6.05;;;10.70;99.90;;;;;;4998720;28;20070;-68
2021/05/16 04:33:08;;;;;;;21.83;6.97;;;10.80;99.90;;;;;;4999156;28;20057;-69
2021/05/16 04:35:35;;;;;;;23.23;7.03;;;10.80;99.90;;;;;;4995853;28;20478;-68
2021/05/16 04:38:02;;;;;;;17.60;6.45;;;10.80;99.90;;;;;;5002154;28;20402;-69
2021/05/16 04:40:29;;;;;;;19.48;7.72;;;10.80;99.90;;;;;;4998063;28;20046;-68
2021/05/16 04:42:56;;;;;;;23.38;7.63;;;10.80;99.90;;;;;;5003623;28;20050;-69
2021/05/16 04:45:23;;;;;;;16.00;6.00;;;10.80;99.90;;;;;;5003946;28;20493;-69
2021/05/16 04:47:51;;;;;;;15.98;6.18;;;10.90;99.90;;;;;;5006343;28;20444;-68
2021/05/16 04:50:18;;;;;;;21.83;7.68;;;10.90;99.90;;;;;;5008337;28;20062;-68
2021/05/16 04:52:46;;;;;;;18.15;7.20;;;10.90;99.90;;;;;;5009567;28;20074;-69
2021/05/16 04:55:14;;;;;;;24.52;8.52;;;10.90;99.90;;;;;;4989851;28;20104;-68
2021/05/16 04:57:41;;;;;;;;;;;10.90;99.90;;;;;;5023545;28;20536;-69
2021/05/16 05:00:09;;;;;;;20.10;7.70;;;10.90;99.90;;;;;;5000981;28;19926;-69
2021/05/16 05:02:40;;;;;;;27.20;7.47;;;10.90;99.90;;;;;;5009080;28;20061;-68
2021/05/16 05:05:08;;;;;;;16.35;6.35;;;10.90;99.90;;;;;;5005190;28;20085;-68
2021/05/16 05:07:35;;;;;;;20.80;7.00;;;10.90;99.90;;;;;;5007067;28;20062;-69
2021/05/16 05:10:03;;;;;;;19.73;7.18;;;10.90;99.90;;;;;;5006007;28;20104;-69
2021/05/16 05:12:31;;;;;;;18.10;6.75;;;10.90;99.90;;;;;;5003100;28;20128;-69
2021/05/16 05:14:58;;;;;;;20.35;7.15;;;10.90;99.90;;;;;;5003573;28;20049;-69
2021/05/16 05:17:25;;;;;;;19.42;6.45;;;10.90;99.90;;;;;;5021154;28;20057;-68
2021/05/16 05:19:52;;;;;;;16.27;5.82;;;10.80;99.90;;;;;;5032562;28;20470;-69
2021/05/16 05:22:19;;;;;;;16.73;5.72;;;10.80;99.90;;;;;;5004432;28;20049;-69
2021/05/16 05:24:46;;;;;;;16.38;5.65;;;10.80;99.90;;;;;;5023759;28;20096;-69
2021/05/16 05:27:13;;;;;;;17.77;5.85;;;10.80;99.90;;;;;;4998154;28;20046;-69
2021/05/16 05:29:40;;;;;;;19.00;4.80;;;10.80;99.90;;;;;;5005496;28;20046;-69
2021/05/16 05:32:07;;;;;;;19.17;5.57;;;10.80;99.90;;;;;;5005060;28;20052;-68
2021/05/16 05:34:34;;;;;;;15.85;4.47;;;10.80;99.90;;;;;;5003956;28;20049;-69
2021/05/16 05:37:01;;;;;;;17.55;5.18;;;10.80;99.90;;;;;;4996713;28;20046;-69
2021/05/16 05:39:28;;;;;;;20.60;6.35;;;10.80;99.90;;;;;;5005333;28;20046;-69
2021/05/16 05:41:55;;;;;;;18.58;5.85;;;10.90;99.90;;;;;;5005527;28;20093;-69
2021/05/16 05:44:23;;;;;;;16.25;5.85;;;10.90;99.90;;;;;;5008429;28;20101;-69
2021/05/16 05:46:50;;;;;;;18.65;6.13;;;11.00;99.90;;;;;;5006193;28;20053;-69
2021/05/16 05:49:17;;;;;;;22.63;5.95;;;11.00;99.90;;;;;;5019690;28;20133;-68
2021/05/16 05:51:43;;;;;;;23.98;6.32;;;11.00;99.90;;;;;;5003790;28;20041;-69
2021/05/16 05:54:10;;;;;;;21.10;5.97;;;11.10;99.90;;;;;;5000890;28;20401;-69
2021/05/16 05:56:38;;;;;;;21.00;5.97;;;11.20;99.90;;;;;;5009555;28;20042;-68
2021/05/16 05:59:04;;;;;;;19.73;5.85;;;11.20;99.90;;;;;;4998914;28;20050;-69
2021/05/16 06:01:31;;;;;;;18.38;5.70;;;11.20;99.90;;;;;;5004280;28;20496;-68
2021/05/16 06:03:58;;;;;;;21.35;6.72;;;11.10;99.90;;;;;;5018650;28;20470;-69
2021/05/16 06:06:25;;;;;;;23.48;6.50;;;11.20;99.90;;;;;;5003971;28;20088;-69
2021/05/16 06:08:52;;;;;;;21.35;6.47;;;11.10;99.90;;;;;;5025850;28;20112;-68
2021/05/16 06:11:19;;;;;;;20.42;6.13;;;11.10;99.90;;;;;;5000781;28;20054;-69
2021/05/16 06:13:47;;;;;;;20.87;5.97;;;11.20;99.90;;;;;;5004755;28;20133;-69
2021/05/16 06:16:15;;;;;;;18.60;5.82;;;11.20;99.90;;;;;;4997997;28;20313;-69
2021/05/16 06:18:42;;;;;;;18.40;6.57;;;11.30;99.90;;;;;;4995948;28;20064;-68
2021/05/16 06:21:11;;;;;;;20.48;5.90;;;11.40;99.90;;;;;;4988977;28;20077;-69
2021/05/16 06:24:00;;;;;;;20.38;6.43;;;11.50;99.90;;;;;;4992166;28;20039;-68
2021/05/16 06:26:27;;;;;;;19.67;6.97;;;11.70;99.90;;;;;;4989668;28;20404;-69
2021/05/16 06:28:54;;;;;;;22.25;6.65;;;11.70;99.90;;;;;;4987667;28;20050;-69
2021/05/16 06:31:23;;;;;;;21.65;6.65;;;11.70;99.90;;;;;;4984693;28;20057;-68
2021/05/16 06:33:50;;;;;;;;;;;11.70;99.90;;;;;;4990974;28;20395;-69
2021/05/16 06:36:17;;;;;;;18.80;5.38;;;11.70;99.90;;;;;;4991443;28;19937;-69
2021/05/16 06:38:44;;;;;;;23.13;6.53;;;11.60;99.90;;;;;;4989430;28;20050;-69
2021/05/16 06:41:11;;;;;;;17.17;5.68;;;11.60;99.90;;;;;;4988504;28;20065;-69
2021/05/16 06:43:38;;;;;;;18.60;6.40;;;11.70;99.90;;;;;;5004135;28;20092;-69
2021/05/16 06:46:05;;;;;;;18.42;6.05;;;11.60;99.90;;;;;;4987673;28;20046;-69
2021/05/16 06:48:34;;;;;;;24.52;7.18;;;11.70;99.90;;;;;;4989932;28;20046;-68
2021/05/16 06:51:03;;;;;;;18.20;6.05;;;11.80;99.90;;;;;;4989050;28;20050;-69
2021/05/16 06:53:31;;;;;;;23.25;6.28;;;11.80;99.90;;;;;;5022171;28;20120;-69
2021/05/16 06:55:59;;;;;;;20.65;6.18;;;11.90;99.90;;;;;;4987902;28;20045;-69
2021/05/16 06:58:29;;;;;;;16.05;5.95;;;12.00;99.90;;;;;;4987479;28;20500;-69
2021/05/16 07:01:09;;;;;;;22.35;7.57;;;12.00;99.90;;;;;;4987425;28;20049;-68
2021/05/16 07:03:38;;;;;;;16.33;5.65;;;12.10;99.90;;;;;;4986378;28;20050;-69
2021/05/16 07:06:05;;;;;;;20.55;5.78;;;12.10;99.90;;;;;;4987146;28;20050;-69
2021/05/16 07:08:34;;;;;;;28.17;8.20;;;12.10;99.90;;;;;;4991771;28;20050;-68
2021/05/16 07:11:02;;;;;;;22.60;6.72;;;12.00;99.90;;;;;;4989707;28;20391;-69
2021/05/16 07:13:29;;;;;;;21.65;6.60;;;12.00;99.90;;;;;;5002452;28;20446;-69
2021/05/16 07:15:56;;;;;;;18.92;6.25;;;12.00;99.90;;;;;;4988864;28;20042;-69
2021/05/16 07:18:23;;;;;;;17.80;6.15;;;12.10;99.90;;;;;;5003839;28;20081;-69
2021/05/16 07:20:51;;;;;;;15.18;5.28;;;12.20;99.90;;;;;;4986347;28;20460;-69
2021/05/16 07:23:19;;;;;;;19.05;5.63;;;12.20;99.90;;;;;;4986292;28;20046;-69
2021/05/16 07:25:46;;;;;;;17.30;5.67;;;12.20;99.90;;;;;;4985063;28;20058;-69
2021/05/16 07:28:13;;;;;;;17.48;5.75;;;12.20;99.90;;;;;;4988383;28;20053;-69
2021/05/16 07:30:40;;;;;;;20.05;6.57;;;12.10;99.90;;;;;;4985419;28;20552;-69
2021/05/16 07:33:07;;;;;;;21.83;6.32;;;12.10;99.90;;;;;;5018438;28;20081;-68
2021/05/16 07:35:39;;;;;;;18.20;6.10;;;12.10;99.90;;;;;;4988217;28;20105;-69
2021/05/16 07:38:06;;;;;;;18.27;6.05;;;12.10;99.90;;;;;;5003635;28;20085;-69
2021/05/16 07:40:33;;;;;;;15.50;5.47;;;12.10;99.90;;;;;;4986944;28;20046;-68
2021/05/16 07:43:01;;;;;;;21.77;6.63;;;12.10;99.90;;;;;;4989410;28;20046;-68
2021/05/16 07:45:28;;;;;;;19.10;6.50;;;12.10;99.90;;;;;;4986274;28;20046;-69
2021/05/16 07:47:55;;;;;;;16.75;5.85;;;12.10;99.90;;;;;;4974915;28;20049;-69
2021/05/16 07:50:22;;;;;;;22.25;6.43;;;12.10;99.90;;;;;;4986985;28;20156;-69
2021/05/16 07:52:49;;;;;;;24.80;6.90;;;12.10;99.90;;;;;;4978658;28;20060;-69
2021/05/16 07:55:17;;;;;;;20.17;6.22;;;12.10;99.90;;;;;;4985517;28;20140;-69
2021/05/16 07:57:44;;;;;;;15.60;5.43;;;12.20;99.90;;;;;;4986587;28;20050;-68
2021/05/16 08:00:11;;;;;;;20.17;7.28;;;12.30;99.90;;;;;;4984739;28;20038;-68
2021/05/16 08:02:42;;;;;;;20.58;6.63;;;12.40;99.90;;;;;;4986880;28;20256;-69
2021/05/16 08:05:11;;;;;;;21.70;6.68;;;12.40;99.90;;;;;;4986755;28;20057;-69
2021/05/16 08:07:38;;;;;;;17.98;6.00;;;12.60;99.90;;;;;;4982295;28;20050;-69
2021/05/16 08:10:07;;;;;;;17.27;6.32;;;12.60;99.90;;;;;;4981346;28;20081;-69
2021/05/16 08:12:34;;;;;;;16.25;5.90;;;12.80;99.90;;;;;;5001638;28;20104;-69
2021/05/16 08:15:03;;;;;;;17.85;5.72;;;12.90;99.90;;;;;;4984029;28;20054;-69
2021/05/16 08:17:30;;;;;;;20.45;6.53;;;12.80;99.90;;;;;;4987154;28;20046;-69
2021/05/16 08:19:57;;;;;;;16.33;5.72;;;12.80;99.90;;;;;;4985277;28;20038;-68
2021/05/16 08:22:24;;;;;;;14.82;5.63;;;12.70;99.90;;;;;;4985788;28;21581;-69
2021/05/16 08:24:51;;;;;;;16.35;6.35;;;12.80;99.90;;;;;;4988366;28;20208;-71
2021/05/16 08:27:18;;;;;;;17.25;6.22;;;12.90;99.90;;;;;;4986329;28;20050;-71
2021/05/16 08:29:50;;;;;;;18.95;6.80;;;13.00;99.90;;;;;;4985883;28;20050;-71
2021/05/16 08:32:18;;;;;;;18.40;6.93;;;13.20;99.90;;;;;;4991020;28;20054;-71
2021/05/16 08:34:49;;;;;;;18.25;6.28;;;13.40;99.90;;;;;;4987331;28;20053;-71
2021/05/16 08:37:16;;;;;;;15.77;5.28;;;13.50;99.90;;;;;;4987711;28;20038;-71
2021/05/16 08:39:44;;;;;;;12.45;4.85;;;13.40;99.90;;;;;;5002179;28;20082;-71
2021/05/16 08:42:11;;;;;;;18.00;6.27;;;13.30;99.90;;;;;;4974979;28;20070;-71
2021/05/16 08:44:38;;;;;;;20.85;5.95;;;13.20;99.90;;;;;;4989014;28;20309;-71
2021/05/16 08:47:06;;;;;;;16.83;6.15;;;13.30;99.90;;;;;;5002452;28;20433;-71
2021/05/16 08:49:34;;;;;;;14.48;4.85;;;13.40;99.90;;;;;;4983940;28;20089;-71
2021/05/16 08:52:02;;;;;;;19.13;5.90;;;13.50;99.90;;;;;;4985149;28;20525;-71
2021/05/16 08:54:30;;;;;;;;;;;13.70;99.90;;;;;;5000035;28;20160;-71
2021/05/16 08:56:57;;;;;;;12.60;4.70;;;13.70;99.90;;;;;;4983714;28;19933;-71
2021/05/16 08:59:25;;;;;;;16.23;4.60;;;13.80;99.90;;;;;;4985274;28;20105;-71
2021/05/16 09:02:00;;;;;;;11.50;4.27;;;13.90;99.90;;;;;;4984972;28;20488;-71
2021/05/16 09:04:37;;;;;;;11.57;3.88;;;14.00;99.90;;;;;;4984700;28;20050;-71
2021/05/16 09:07:13;;;;;;;13.90;4.07;;;14.10;99.90;;;;;;4986408;28;20057;-71
2021/05/16 09:09:41;;;;;;;13.48;3.50;;;14.10;99.90;;;;;;4984464;28;20051;-71
2021/05/16 09:12:12;;;;;;;14.23;3.45;;;14.10;99.90;;;;;;4984129;28;20152;-71
2021/05/16 09:14:52;;;;;;;13.55;4.20;;;14.10;99.90;;;;;;5015439;28;20062;-72
2021/05/16 09:17:22;;;;;;;10.35;4.03;;;14.00;99.90;;;;;;4988552;28;20069;-71
2021/05/16 09:19:51;;;;;;;13.02;3.20;;;13.80;99.90;;;;;;5001094;28;20462;-71
2021/05/16 09:22:29;;;;;;;10.75;2.78;;;13.70;99.90;;;;;;4990355;28;20575;-71
2021/05/16 09:25:08;;;;;;;16.13;3.22;;;13.50;99.90;;;;;;5020202;28;20050;-71
2021/05/16 09:27:36;;;;;;;11.52;2.85;;;13.10;99.90;;;;;;4989116;28;20132;-71
2021/05/16 09:30:15;;;;;;;12.87;4.00;;;12.80;99.90;;;;;;4986067;28;20054;-71
2021/05/16 09:32:49;;;;;;;12.88;3.25;;;12.60;99.90;;;;;;5021157;28;20344;-71
2021/05/16 09:35:17;;;;;;;11.77;2.97;;;12.40;99.90;;;;;;4989896;28;20085;-71
2021/05/16 09:37:57;;;;;;;;;;;12.30;99.90;;;;;;4989950;28;20054;-71
2021/05/16 09:40:28;;;;;;;10.98;2.25;;;12.30;99.90;;;;;;4987805;28;19941;-71
2021/05/16 09:43:20;;;;;;;13.57;2.58;;;12.30;99.90;;;;;;4989727;28;20060;-71
2021/05/16 09:46:07;;;;;;;9.38;2.17;;;12.40;99.90;;;;;;4988602;28;20066;-71
2021/05/16 09:48:42;;;;;;;11.20;2.63;;;12.60;99.90;;;;;;4988576;28;20065;-71
2021/05/16 09:51:25;;;;;;;11.27;2.92;;;12.90;99.90;;;;;;4989532;28;20156;-71
2021/05/16 09:54:04;;;;;;;8.07;2.05;;;13.10;99.90;;;;;;4990168;28;20050;-71
2021/05/16 09:56:39;;;;;;;11.50;2.80;;;13.20;99.90;;;;;;5020240;28;20084;-71
2021/05/16 09:59:08;;;;;;;12.85;3.08;;;13.40;99.90;;;;;;4990802;28;20038;-71
2021/05/16 10:01:37;;;;;;;10.73;2.47;;;13.60;99.90;;;;;;4988553;28;20120;-71
2021/05/16 10:04:05;;;;;;;8.02;2.55;;;13.70;99.90;;;;;;4992625;28;20050;-71
2021/05/16 10:06:34;;;;;;;10.82;2.85;;;13.80;99.90;;;;;;4988945;28;20058;-71
2021/05/16 10:09:02;;;;;;;11.70;2.58;;;14.00;99.90;;;;;;4989192;28;20402;-71
2021/05/16 10:11:30;;;;;;;14.38;2.85;;;14.10;99.90;;;;;;4988855;28;20128;-71
2021/05/16 10:14:00;;;;;;;;;;;14.30;99.90;;;;;;4989235;28;20071;-71
2021/05/16 10:16:37;;;;;;;14.75;3.00;;;14.50;99.90;;;;;;4988834;28;19936;-71
2021/05/16 10:19:05;;;;;;;11.10;2.40;;;14.70;99.90;;;;;;4990499;28;20140;-71
2021/05/16 10:21:32;;;;;;;11.20;2.22;;;14.80;99.90;;;;;;4987288;28;20050;-71
2021/05/16 10:24:13;;;;;;;10.88;2.53;;;14.90;99.90;;;;;;4991793;28;20072;-72
2021/05/16 10:26:42;;;;;;;11.77;2.28;;;14.90;99.90;;;;;;5004526;28;20100;-71
2021/05/16 10:29:15;;;;;;;11.45;2.40;;;14.70;99.90;;;;;;5005990;28;20050;-71
2021/05/16 10:31:50;;;;;;;10.75;2.05;;;14.60;99.90;;;;;;5001662;28;20061;-71
2021/05/16 10:34:31;;;;;;;12.30;2.80;;;14.40;99.90;;;;;;4987331;28;20112;-71
2021/05/16 10:37:02;;;;;;;10.77;2.30;;;14.30;99.90;;;;;;4986902;28;20050;-71
2021/05/16 10:39:43;;;;;;;6.93;1.95;;;14.30;99.90;;;;;;4988086;28;20519;-71
2021/05/16 10:42:12;;;;;;;11.60;2.55;;;14.30;99.90;;;;;;4985086;28;20057;-71
2021/05/16 10:44:40;;;;;;;;;;;14.40;99.90;;;;;;4986866;28;20453;-71
2021/05/16 10:47:07;;;;;;;13.10;3.33;;;14.40;99.90;;;;;;4987418;28;20361;-71
2021/05/16 10:49:36;;;;;;;6.82;1.80;;;14.60;99.90;;;;;;4985577;28;20062;-71
2021/05/16 10:52:22;;;;;;;;;;;14.70;99.90;;;;;;4988208;28;20054;-71
2021/05/16 10:54:49;;;;;;;5.55;1.33;;;14.80;99.90;;;;;;4986950;28;20439;-71
2021/05/16 10:57:23;;;;;;;7.25;1.60;;;14.90;99.90;;;;;;5004370;28;20054;-71
2021/05/16 10:59:51;;;;;;;7.47;1.98;;;15.20;99.90;;;;;;5003317;28;20046;-71
2021/05/16 11:02:55;;;;;;;4.90;1.35;;;15.50;99.90;;;;;;4988827;28;20047;-71
2021/05/16 11:05:41;;;;;;;5.90;1.55;;;15.70;99.90;;;;;;4985612;28;20045;-71
2021/05/16 11:08:11;;;;;;;5.93;1.60;;;16.00;99.90;;;;;;4987140;28;20773;-71
2021/05/16 11:10:39;;;;;;;7.70;1.75;;;16.20;99.90;;;;;;4984979;28;20074;-71
2021/05/16 11:13:20;;;;;;;7.45;1.45;;;16.20;99.90;;;;;;4987976;28;20311;-72
2021/05/16 11:15:52;;;;;;;7.32;1.40;;;16.20;99.90;;;;;;4983020;28;20074;-71
2021/05/16 11:18:24;;;;;;;6.00;1.50;;;16.20;99.90;;;;;;4987149;28;20132;-71
2021/05/16 11:20:54;;;;;;;6.05;1.33;;;16.10;99.90;;;;;;4998553;28;20107;-71
2021/05/16 11:23:25;;;;;;;8.32;1.63;;;16.00;99.90;;;;;;4991031;28;20053;-71
2021/05/16 11:25:55;;;;;;;9.05;1.77;;;15.80;99.90;;;;;;4985659;28;20414;-71
2021/05/16 11:28:23;;;;;;;7.43;2.28;;;15.60;99.90;;;;;;4989143;28;20099;-70
2021/05/16 11:30:51;;;;;;;8.32;2.00;;;15.50;99.90;;;;;;4988440;28;20054;-70
2021/05/16 11:33:32;;;;;;;5.82;1.67;;;15.40;99.90;;;;;;4990320;28;20522;-71
2021/05/16 11:36:12;;;;;;;8.07;1.90;;;15.30;99.90;;;;;;4981936;28;20053;-71
2021/05/16 11:38:41;;;;;;;6.25;1.60;;;15.20;99.90;;;;;;4990727;28;20046;-70
2021/05/16 11:41:23;;;;;;;6.60;1.67;;;15.10;99.90;;;;;;4986222;28;20042;-70
2021/05/16 11:43:50;;;;;;;9.93;1.80;;;15.20;99.90;;;;;;5002485;28;20054;-70
2021/05/16 11:46:33;;;;;;;5.68;1.42;;;15.30;99.90;;;;;;4987241;28;20050;-71
2021/05/16 11:49:02;;;;;;;4.55;1.55;;;15.40;99.90;;;;;;4988298;28;20085;-70
2021/05/16 11:51:32;;;;;;;7.18;1.90;;;15.70;99.90;;;;;;4987335;28;20077;-71
2021/05/16 11:54:10;;;;;;;7.22;1.63;;;15.80;99.90;;;;;;4987226;28;20050;-71
2021/05/16 11:56:42;;;;;;;4.70;1.67;;;15.90;99.90;;;;;;4986830;28;20054;-71
2021/05/16 11:59:10;;;;;;;7.90;1.70;;;16.00;99.90;;;;;;4999166;28;20833;-70
2021/05/16 12:01:42;;;;;;;8.57;2.10;;;16.00;99.90;;;;;;4989499;28;20062;-70
2021/05/16 12:04:17;;;;;;;6.78;1.70;;;16.10;99.90;;;;;;4990701;28;20046;-70
2021/05/16 12:06:54;;;;;;;4.55;1.60;;;16.20;99.90;;;;;;4989684;28;20042;-70
2021/05/16 12:09:25;;;;;;;5.15;1.48;;;16.40;99.90;;;;;;4986475;28;20537;-71
2021/05/16 12:11:54;;;;;;;5.50;1.60;;;16.50;99.90;;;;;;4987262;28;20097;-70
2021/05/16 12:14:24;;;;;;;5.25;1.50;;;16.60;99.90;;;;;;4999454;28;20054;-70
2021/05/16 12:16:55;;;;;;;6.55;1.98;;;16.70;99.90;;;;;;4982958;28;20054;-71
2021/05/16 12:19:26;;;;;;;4.50;1.23;;;16.70;99.90;;;;;;4985465;28;20050;-71
2021/05/16 12:21:55;;;;;;;6.68;1.50;;;16.60;99.90;;;;;;4986769;28;20133;-71
2021/05/16 12:24:24;;;;;;;6.25;1.30;;;16.40;99.90;;;;;;5009750;28;20145;-72
2021/05/16 12:26:51;;;;;;;6.68;1.40;;;16.10;99.90;;;;;;4992101;28;20085;-72
2021/05/16 12:29:20;;;;;;;5.70;1.10;;;15.80;99.90;;;;;;4995050;28;20068;-71
2021/05/16 12:31:47;;;;;;;4.05;1.10;;;15.50;99.90;;;;;;4991389;28;20057;-71
2021/05/16 12:34:16;;;;;;;5.60;1.20;;;15.30;99.90;;;;;;4992228;28;20401;-72
2021/05/16 12:36:46;;;;;;;4.40;1.08;;;15.10;99.90;;;;;;4990255;28;20049;-71
2021/05/16 12:39:13;;;;;;;7.50;1.42;;;14.90;99.90;;;;;;4991915;28;20153;-71
2021/05/16 12:41:41;;;;;;;4.93;1.10;;;14.60;99.90;;;;;;5006496;28;20057;-72
2021/05/16 12:44:22;;;;;;;4.73;0.90;;;14.30;99.90;;;;;;4991082;28;20050;-72
2021/05/16 12:46:50;;;;;;;5.55;1.10;;;14.00;99.90;;;;;;5005115;28;20049;-71
2021/05/16 12:49:22;;;;;;;3.17;1.10;;;13.70;99.90;;;;;;4990929;28;20545;-71
2021/05/16 12:52:08;;;;;;;6.13;1.10;;;13.50;99.90;;;;;;5007111;28;20046;-71